sensor_id;sensor_type;location;lat;lon;timestamp;pressure;altitude;pressure_sealevel;temperature;humidity
73267;BME280;61495;53.400;7.608;2023-08-06T00:00:40;100668.88;;;14.79;88.61
73267;BME280;61495;53.400;7.608;2023-08-06T00:03:05;100676.41;;;14.77;90.16
73267;BME280;61495;53.400;7.608;2023-08-06T00:05:31;100672.88;;;14.77;89.81
73267;BME280;61495;53.400;7.608;2023-08-06T00:07:56;100661.75;;;14.73;91.37
73267;BME280;61495;53.400;7.608;2023-08-06T00:10:22;100665.53;;;14.72;90.17
73267;BME280;61495;53.400;7.608;2023-08-06T00:12:47;100666.00;;;14.69;89.34
73267;BME280;61495;53.400;7.608;2023-08-06T00:15:14;100662.38;;;14.64;88.86
73267;BME280;61495;53.400;7.608;2023-08-06T00:17:39;100656.63;;;14.60;88.48
73267;BME280;61495;53.400;7.608;2023-08-06T00:20:06;100664.94;;;14.59;88.68
73267;BME280;61495;53.400;7.608;2023-08-06T00:22:35;100675.72;;;14.59;89.47
73267;BME280;61495;53.400;7.608;2023-08-06T00:25:02;100667.28;;;14.55;88.53
73267;BME280;61495;53.400;7.608;2023-08-06T00:27:28;100663.44;;;14.51;88.87
73267;BME280;61495;53.400;7.608;2023-08-06T00:29:53;100670.94;;;14.49;89.56
73267;BME280;61495;53.400;7.608;2023-08-06T00:32:24;100675.75;;;14.47;89.18
73267;BME280;61495;53.400;7.608;2023-08-06T00:34:49;100669.78;;;14.45;89.14
73267;BME280;61495;53.400;7.608;2023-08-06T00:37:18;100657.72;;;14.36;89.81
73267;BME280;61495;53.400;7.608;2023-08-06T00:39:44;100666.38;;;14.38;88.98
73267;BME280;61495;53.400;7.608;2023-08-06T00:42:11;100659.22;;;14.32;89.26
73267;BME280;61495;53.400;7.608;2023-08-06T00:44:37;100667.94;;;14.34;88.99
73267;BME280;61495;53.400;7.608;2023-08-06T00:47:03;100666.16;;;14.28;91.36
73267;BME280;61495;53.400;7.608;2023-08-06T00:49:29;100662.38;;;14.29;89.53
73267;BME280;61495;53.400;7.608;2023-08-06T00:51:54;100656.88;;;14.24;89.42
73267;BME280;61495;53.400;7.608;2023-08-06T00:54:20;100667.75;;;14.29;90.26
73267;BME280;61495;53.400;7.608;2023-08-06T00:56:46;100647.84;;;14.18;91.88
73267;BME280;61495;53.400;7.608;2023-08-06T00:59:12;100668.84;;;14.28;90.60
73267;BME280;61495;53.400;7.608;2023-08-06T01:01:38;100653.34;;;14.23;90.10
73267;BME280;61495;53.400;7.608;2023-08-06T01:04:04;100657.91;;;14.23;90.46
73267;BME280;61495;53.400;7.608;2023-08-06T01:06:47;100653.59;;;14.22;92.03
73267;BME280;61495;53.400;7.608;2023-08-06T01:12:09;100645.38;;;14.17;92.25
73267;BME280;61495;53.400;7.608;2023-08-06T01:14:50;100646.22;;;14.17;91.47
73267;BME280;61495;53.400;7.608;2023-08-06T01:17:18;100649.16;;;14.16;91.11
73267;BME280;61495;53.400;7.608;2023-08-06T01:19:45;100644.81;;;14.15;91.03
73267;BME280;61495;53.400;7.608;2023-08-06T01:22:10;100650.31;;;14.20;92.05
73267;BME280;61495;53.400;7.608;2023-08-06T01:24:36;100657.34;;;14.21;92.24
73267;BME280;61495;53.400;7.608;2023-08-06T01:27:11;100641.66;;;14.18;92.79
73267;BME280;61495;53.400;7.608;2023-08-06T01:29:46;100634.28;;;14.13;91.50
73267;BME280;61495;53.400;7.608;2023-08-06T01:32:14;100649.50;;;14.19;93.25
73267;BME280;61495;53.400;7.608;2023-08-06T01:34:41;100638.84;;;14.13;95.50
73267;BME280;61495;53.400;7.608;2023-08-06T01:37:10;100647.03;;;14.18;94.14
73267;BME280;61495;53.400;7.608;2023-08-06T01:39:36;100632.63;;;14.12;94.23
73267;BME280;61495;53.400;7.608;2023-08-06T01:42:01;100634.59;;;14.17;91.93
73267;BME280;61495;53.400;7.608;2023-08-06T01:44:27;100635.53;;;14.11;93.37
73267;BME280;61495;53.400;7.608;2023-08-06T01:46:53;100626.41;;;14.12;93.84
73267;BME280;61495;53.400;7.608;2023-08-06T01:49:18;100627.25;;;14.12;95.05
73267;BME280;61495;53.400;7.608;2023-08-06T01:51:43;100628.66;;;14.15;93.87
73267;BME280;61495;53.400;7.608;2023-08-06T01:54:09;100626.78;;;14.15;95.05
73267;BME280;61495;53.400;7.608;2023-08-06T01:56:34;100624.31;;;14.14;92.94
73267;BME280;61495;53.400;7.608;2023-08-06T01:59:00;100616.47;;;14.12;96.51
73267;BME280;61495;53.400;7.608;2023-08-06T02:01:25;100616.22;;;14.14;94.17
73267;BME280;61495;53.400;7.608;2023-08-06T02:03:50;100610.72;;;14.09;95.20
73267;BME280;61495;53.400;7.608;2023-08-06T02:06:16;100609.78;;;14.15;93.77
73267;BME280;61495;53.400;7.608;2023-08-06T02:08:41;100603.22;;;14.11;95.14
73267;BME280;61495;53.400;7.608;2023-08-06T02:11:07;100606.88;;;14.16;95.52
73267;BME280;61495;53.400;7.608;2023-08-06T02:13:32;100611.44;;;14.16;94.35
73267;BME280;61495;53.400;7.608;2023-08-06T02:15:57;100607.66;;;14.17;96.16
73267;BME280;61495;53.400;7.608;2023-08-06T02:18:23;100607.34;;;14.13;96.01
73267;BME280;61495;53.400;7.608;2023-08-06T02:20:56;100618.44;;;14.17;94.49
73267;BME280;61495;53.400;7.608;2023-08-06T02:23:22;100613.88;;;14.17;95.46
73267;BME280;61495;53.400;7.608;2023-08-06T02:25:48;100604.66;;;14.13;95.62
73267;BME280;61495;53.400;7.608;2023-08-06T02:28:13;100603.94;;;14.18;96.90
73267;BME280;61495;53.400;7.608;2023-08-06T02:30:39;100602.28;;;14.17;96.47
73267;BME280;61495;53.400;7.608;2023-08-06T02:33:05;100604.75;;;14.18;95.64
73267;BME280;61495;53.400;7.608;2023-08-06T02:35:31;100602.28;;;14.17;94.31
73267;BME280;61495;53.400;7.608;2023-08-06T02:37:57;100599.34;;;14.18;95.74
73267;BME280;61495;53.400;7.608;2023-08-06T02:40:22;100600.19;;;14.19;95.95
73267;BME280;61495;53.400;7.608;2023-08-06T02:42:49;100593.63;;;14.15;96.50
73267;BME280;61495;53.400;7.608;2023-08-06T02:45:14;100600.19;;;14.19;97.60
73267;BME280;61495;53.400;7.608;2023-08-06T02:47:40;100593.16;;;14.18;96.84
73267;BME280;61495;53.400;7.608;2023-08-06T02:50:05;100593.97;;;14.18;96.08
73267;BME280;61495;53.400;7.608;2023-08-06T02:52:31;100589.41;;;14.19;97.06
73267;BME280;61495;53.400;7.608;2023-08-06T02:54:58;100577.91;;;14.12;97.01
73267;BME280;61495;53.400;7.608;2023-08-06T02:57:25;100574.75;;;14.15;96.28
73267;BME280;61495;53.400;7.608;2023-08-06T02:59:51;100581.06;;;14.20;97.61
73267;BME280;61495;53.400;7.608;2023-08-06T03:02:21;100576.41;;;14.16;97.10
73267;BME280;61495;53.400;7.608;2023-08-06T03:04:47;100584.00;;;14.19;97.37
73267;BME280;61495;53.400;7.608;2023-08-06T03:07:13;100564.34;;;14.07;98.11
73267;BME280;61495;53.400;7.608;2023-08-06T03:09:39;100575.59;;;14.15;98.15
73267;BME280;61495;53.400;7.608;2023-08-06T03:12:05;100547.59;;;13.93;95.22
73267;BME280;61495;53.400;7.608;2023-08-06T03:14:30;100576.97;;;14.18;95.60
73267;BME280;61495;53.400;7.608;2023-08-06T03:16:55;100571.72;;;14.11;97.51
73267;BME280;61495;53.400;7.608;2023-08-06T03:19:21;100576.16;;;14.17;97.16
73267;BME280;61495;53.400;7.608;2023-08-06T03:21:47;100567.97;;;14.12;97.44
73267;BME280;61495;53.400;7.608;2023-08-06T03:24:13;100550.97;;;14.12;98.14
73267;BME280;61495;53.400;7.608;2023-08-06T03:26:39;100559.16;;;14.17;97.39
73267;BME280;61495;53.400;7.608;2023-08-06T03:29:04;100551.81;;;14.12;97.70
73267;BME280;61495;53.400;7.608;2023-08-06T03:31:30;100544.53;;;14.13;96.29
73267;BME280;61495;53.400;7.608;2023-08-06T03:33:55;100548.84;;;14.14;96.90
73267;BME280;61495;53.400;7.608;2023-08-06T03:36:21;100547.72;;;14.10;98.31
73267;BME280;61495;53.400;7.608;2023-08-06T03:38:46;100550.97;;;14.12;97.51
73267;BME280;61495;53.400;7.608;2023-08-06T03:41:13;100555.91;;;14.15;96.13
73267;BME280;61495;53.400;7.608;2023-08-06T03:43:39;100549.34;;;14.11;97.98
73267;BME280;61495;53.400;7.608;2023-08-06T03:46:04;100557.53;;;14.16;97.91
73267;BME280;61495;53.400;7.608;2023-08-06T03:48:30;100538.56;;;14.11;97.72
73267;BME280;61495;53.400;7.608;2023-08-06T03:50:55;100544.75;;;14.11;97.40
73267;BME280;61495;53.400;7.608;2023-08-06T03:53:21;100542.31;;;14.10;97.23
73267;BME280;61495;53.400;7.608;2023-08-06T03:55:46;100554.59;;;14.17;97.66
73267;BME280;61495;53.400;7.608;2023-08-06T03:58:11;100555.91;;;14.15;96.57
73267;BME280;61495;53.400;7.608;2023-08-06T04:01:16;100550.03;;;14.18;97.40
73267;BME280;61495;53.400;7.608;2023-08-06T04:03:41;100540.69;;;14.09;95.05
73267;BME280;61495;53.400;7.608;2023-08-06T04:06:07;100552.97;;;14.16;96.00
73267;BME280;61495;53.400;7.608;2023-08-06T04:08:32;100543.47;;;14.14;96.74
73267;BME280;61495;53.400;7.608;2023-08-06T04:10:58;100542.41;;;14.15;95.37
73267;BME280;61495;53.400;7.608;2023-08-06T04:13:23;100538.09;;;14.14;95.23
73267;BME280;61495;53.400;7.608;2023-08-06T04:15:49;100545.94;;;14.15;95.27
73267;BME280;61495;53.400;7.608;2023-08-06T04:18:14;100535.38;;;14.14;95.62
73267;BME280;61495;53.400;7.608;2023-08-06T04:20:44;100541.84;;;14.13;97.79
73267;BME280;61495;53.400;7.608;2023-08-06T04:23:10;100540.78;;;14.14;96.07
73267;BME280;61495;53.400;7.608;2023-08-06T04:25:35;100542.91;;;14.12;96.74
73267;BME280;61495;53.400;7.608;2023-08-06T04:28:01;100535.63;;;14.12;98.40
73267;BME280;61495;53.400;7.608;2023-08-06T04:30:27;100524.41;;;14.04;96.41
73267;BME280;61495;53.400;7.608;2023-08-06T04:32:52;100530.72;;;14.09;99.34
73267;BME280;61495;53.400;7.608;2023-08-06T04:35:17;100538.09;;;14.14;97.58
73267;BME280;61495;53.400;7.608;2023-08-06T04:37:43;100531.56;;;14.10;98.53
73267;BME280;61495;53.400;7.608;2023-08-06T04:40:09;100536.94;;;14.10;100.00
73267;BME280;61495;53.400;7.608;2023-08-06T04:42:34;100539.38;;;14.11;98.01
73267;BME280;61495;53.400;7.608;2023-08-06T04:45:02;100542.31;;;14.10;97.95
73267;BME280;61495;53.400;7.608;2023-08-06T04:47:27;100546.63;;;14.11;97.67
73267;BME280;61495;53.400;7.608;2023-08-06T04:49:53;100541.84;;;14.13;99.66
73267;BME280;61495;53.400;7.608;2023-08-06T04:52:18;100532.50;;;14.04;100.00
73267;BME280;61495;53.400;7.608;2023-08-06T04:54:44;100525.72;;;14.01;100.00
73267;BME280;61495;53.400;7.608;2023-08-06T04:57:10;100525.81;;;14.06;100.00
73267;BME280;61495;53.400;7.608;2023-08-06T04:59:35;100534.47;;;14.08;100.00
73267;BME280;61495;53.400;7.608;2023-08-06T05:02:01;100522.19;;;14.01;100.00
73267;BME280;61495;53.400;7.608;2023-08-06T05:04:27;100536.94;;;14.10;100.00
73267;BME280;61495;53.400;7.608;2023-08-06T05:06:52;100538.72;;;14.04;100.00
73267;BME280;61495;53.400;7.608;2023-08-06T05:09:19;100537.75;;;14.10;100.00
73267;BME280;61495;53.400;7.608;2023-08-06T05:11:46;100549.94;;;14.13;99.60
73267;BME280;61495;53.400;7.608;2023-08-06T05:14:12;100548.84;;;14.14;100.00
73267;BME280;61495;53.400;7.608;2023-08-06T05:16:37;100543.94;;;14.11;100.00
73267;BME280;61495;53.400;7.608;2023-08-06T05:19:02;100541.59;;;14.14;99.32
73267;BME280;61495;53.400;7.608;2023-08-06T05:21:28;100555.41;;;14.18;100.00
73267;BME280;61495;53.400;7.608;2023-08-06T05:23:54;100547.13;;;14.19;100.00
73267;BME280;61495;53.400;7.608;2023-08-06T05:26:19;100545.94;;;14.15;100.00
73267;BME280;61495;53.400;7.608;2023-08-06T05:28:45;100547.91;;;14.20;99.24
73267;BME280;61495;53.400;7.608;2023-08-06T05:31:12;100545.81;;;14.22;100.00
73267;BME280;61495;53.400;7.608;2023-08-06T05:33:37;100553.66;;;14.23;99.26
73267;BME280;61495;53.400;7.608;2023-08-06T05:36:03;100516.91;;;14.06;98.92
73267;BME280;61495;53.400;7.608;2023-08-06T05:38:29;100548.97;;;14.30;100.00
73267;BME280;61495;53.400;7.608;2023-08-06T05:40:55;100534.22;;;14.21;100.00
73267;BME280;61495;53.400;7.608;2023-08-06T05:43:21;100547.69;;;14.33;99.68
73267;BME280;61495;53.400;7.608;2023-08-06T05:45:49;100537.34;;;14.30;100.00
73267;BME280;61495;53.400;7.608;2023-08-06T05:48:15;100542.28;;;14.33;100.00
73267;BME280;61495;53.400;7.608;2023-08-06T05:50:40;100549.44;;;14.39;100.00
73267;BME280;61495;53.400;7.608;2023-08-06T05:53:07;100532.44;;;14.38;100.00
73267;BME280;61495;53.400;7.608;2023-08-06T05:55:33;100532.34;;;14.33;100.00
73267;BME280;61495;53.400;7.608;2023-08-06T05:57:58;100539.69;;;14.38;100.00
73267;BME280;61495;53.400;7.608;2023-08-06T06:00:24;100538.66;;;14.39;100.00
73267;BME280;61495;53.400;7.608;2023-08-06T06:02:49;100547.44;;;14.46;100.00
73267;BME280;61495;53.400;7.608;2023-08-06T06:05:15;100550.22;;;14.51;100.00
73267;BME280;61495;53.400;7.608;2023-08-06T06:07:41;100538.53;;;14.45;100.00
73267;BME280;61495;53.400;7.608;2023-08-06T06:10:07;100546.78;;;14.56;100.00
73267;BME280;61495;53.400;7.608;2023-08-06T06:12:32;100554.19;;;14.60;100.00
73267;BME280;61495;53.400;7.608;2023-08-06T06:14:58;100548.44;;;14.57;100.00
73267;BME280;61495;53.400;7.608;2023-08-06T06:17:25;100558.00;;;14.64;100.00
73267;BME280;61495;53.400;7.608;2023-08-06T06:19:50;100538.00;;;14.60;100.00
73267;BME280;61495;53.400;7.608;2023-08-06T06:22:15;100540.78;;;14.65;100.00
73267;BME280;61495;53.400;7.608;2023-08-06T06:24:41;100546.84;;;14.72;100.00
73267;BME280;61495;53.400;7.608;2023-08-06T06:27:06;100553.88;;;14.73;100.00
73267;BME280;61495;53.400;7.608;2023-08-06T06:29:32;100544.03;;;14.67;100.00
73267;BME280;61495;53.400;7.608;2023-08-06T06:31:57;100539.00;;;14.71;100.00
73267;BME280;61495;53.400;7.608;2023-08-06T06:34:22;100548.59;;;14.78;100.00
73267;BME280;61495;53.400;7.608;2023-08-06T06:36:48;100537.22;;;14.76;100.00
73267;BME280;61495;53.400;7.608;2023-08-06T06:39:13;100540.03;;;14.81;100.00
73267;BME280;61495;53.400;7.608;2023-08-06T06:41:39;100547.72;;;14.89;100.00
73267;BME280;61495;53.400;7.608;2023-08-06T06:44:05;100539.06;;;14.87;100.00
73267;BME280;61495;53.400;7.608;2023-08-06T06:46:31;100550.84;;;14.98;100.00
73267;BME280;61495;53.400;7.608;2023-08-06T06:48:57;100552.78;;;15.02;100.00
73267;BME280;61495;53.400;7.608;2023-08-06T06:51:23;100553.94;;;15.07;100.00
73267;BME280;61495;53.400;7.608;2023-08-06T06:53:49;100551.25;;;15.07;100.00
73267;BME280;61495;53.400;7.608;2023-08-06T06:56:14;100554.03;;;15.12;100.00
73267;BME280;61495;53.400;7.608;2023-08-06T06:58:39;100558.94;;;15.15;100.00
73267;BME280;61495;53.400;7.608;2023-08-06T07:01:07;100549.72;;;15.11;100.00
73267;BME280;61495;53.400;7.608;2023-08-06T07:03:35;100544.66;;;15.14;100.00
73267;BME280;61495;53.400;7.608;2023-08-06T07:06:01;100550.78;;;15.26;100.00
73267;BME280;61495;53.400;7.608;2023-08-06T07:08:26;100549.91;;;15.37;100.00
73267;BME280;61495;53.400;7.608;2023-08-06T07:10:59;100540.47;;;15.40;100.00
73267;BME280;61495;53.400;7.608;2023-08-06T07:13:26;100549.28;;;15.47;100.00
73267;BME280;61495;53.400;7.608;2023-08-06T07:15:52;100544.44;;;15.49;100.00
73267;BME280;61495;53.400;7.608;2023-08-06T07:18:17;100549.59;;;15.67;100.00
73267;BME280;61495;53.400;7.608;2023-08-06T07:20:49;100544.03;;;15.74;100.00
73267;BME280;61495;53.400;7.608;2023-08-06T07:23:15;100553.47;;;15.93;100.00
73267;BME280;61495;53.400;7.608;2023-08-06T07:25:40;100544.03;;;15.95;100.00
73267;BME280;61495;53.400;7.608;2023-08-06T07:28:05;100541.00;;;15.92;100.00
73267;BME280;61495;53.400;7.608;2023-08-06T07:30:31;100547.13;;;16.04;99.11
73267;BME280;61495;53.400;7.608;2023-08-06T07:32:57;100558.97;;;16.20;97.96
73267;BME280;61495;53.400;7.608;2023-08-06T07:35:23;100559.66;;;16.32;97.47
73267;BME280;61495;53.400;7.608;2023-08-06T07:37:48;100559.72;;;16.37;97.36
73267;BME280;61495;53.400;7.608;2023-08-06T07:40:13;100543.81;;;16.40;97.85
73267;BME280;61495;53.400;7.608;2023-08-06T07:42:39;100556.53;;;16.61;96.55
73267;BME280;61495;53.400;7.608;2023-08-06T07:45:05;100550.94;;;16.68;97.02
73267;BME280;61495;53.400;7.608;2023-08-06T07:47:30;100553.31;;;16.86;96.40
73267;BME280;61495;53.400;7.608;2023-08-06T07:49:57;100558.09;;;17.06;97.04
73267;BME280;61495;53.400;7.608;2023-08-06T07:52:23;100567.56;;;17.35;98.22
73267;BME280;61495;53.400;7.608;2023-08-06T07:54:48;100558.56;;;17.56;95.56
73267;BME280;61495;53.400;7.608;2023-08-06T07:57:14;100558.47;;;17.78;94.76
73267;BME280;61495;53.400;7.608;2023-08-06T07:59:40;100562.09;;;17.99;94.74
73267;BME280;61495;53.400;7.608;2023-08-06T08:02:06;100561.69;;;18.27;94.59
73267;BME280;61495;53.400;7.608;2023-08-06T08:04:32;100575.63;;;18.41;92.71
73267;BME280;61495;53.400;7.608;2023-08-06T08:06:58;100570.19;;;18.46;90.62
73267;BME280;61495;53.400;7.608;2023-08-06T08:09:23;100567.03;;;18.59;90.13
73267;BME280;61495;53.400;7.608;2023-08-06T08:11:49;100555.13;;;18.80;89.66
73267;BME280;61495;53.400;7.608;2023-08-06T08:14:15;100563.06;;;18.97;90.21
73267;BME280;61495;53.400;7.608;2023-08-06T08:16:41;100570.94;;;19.18;88.48
73267;BME280;61495;53.400;7.608;2023-08-06T08:19:07;100563.38;;;19.20;86.84
73267;BME280;61495;53.400;7.608;2023-08-06T08:21:32;100532.94;;;19.23;87.05
73267;BME280;61495;53.400;7.608;2023-08-06T08:24:00;100563.41;;;19.51;85.10
73267;BME280;61495;53.400;7.608;2023-08-06T08:26:25;100551.44;;;19.67;84.40
73267;BME280;61495;53.400;7.608;2023-08-06T08:28:53;100557.94;;;19.76;81.50
73267;BME280;61495;53.400;7.608;2023-08-06T08:31:21;100552.47;;;19.81;82.56
73267;BME280;61495;53.400;7.608;2023-08-06T08:33:47;100550.31;;;19.88;82.12
73267;BME280;61495;53.400;7.608;2023-08-06T08:36:12;100549.16;;;20.14;81.55
73267;BME280;61495;53.400;7.608;2023-08-06T08:38:38;100549.13;;;20.29;79.91
73267;BME280;61495;53.400;7.608;2023-08-06T08:41:04;100556.09;;;20.61;81.29
73267;BME280;61495;53.400;7.608;2023-08-06T08:43:30;100552.13;;;20.82;78.62
73267;BME280;61495;53.400;7.608;2023-08-06T08:45:56;100547.50;;;20.82;79.14
73267;BME280;61495;53.400;7.608;2023-08-06T08:48:24;100545.50;;;20.98;78.24
73267;BME280;61495;53.400;7.608;2023-08-06T08:50:50;100545.50;;;20.98;76.68
73267;BME280;61495;53.400;7.608;2023-08-06T08:53:16;100547.03;;;21.19;76.60
73267;BME280;61495;53.400;7.608;2023-08-06T08:55:48;100560.53;;;21.34;75.74
73267;BME280;61495;53.400;7.608;2023-08-06T08:58:14;100542.22;;;21.40;74.54
73267;BME280;61495;53.400;7.608;2023-08-06T09:00:47;100554.06;;;21.83;74.87
73267;BME280;61495;53.400;7.608;2023-08-06T09:03:16;100552.28;;;22.02;73.31
73267;BME280;61495;53.400;7.608;2023-08-06T09:05:44;100538.47;;;22.17;72.02
73267;BME280;61495;53.400;7.608;2023-08-06T09:08:11;100544.91;;;22.02;71.01
73267;BME280;61495;53.400;7.608;2023-08-06T09:10:39;100549.03;;;22.00;70.55
73267;BME280;61495;53.400;7.608;2023-08-06T09:13:06;100549.84;;;21.72;72.62
73267;BME280;61495;53.400;7.608;2023-08-06T09:15:32;100549.63;;;21.97;69.99
73267;BME280;61495;53.400;7.608;2023-08-06T09:17:57;100535.22;;;22.15;70.24
73267;BME280;61495;53.400;7.608;2023-08-06T09:20:24;100530.28;;;22.17;69.27
73267;BME280;61495;53.400;7.608;2023-08-06T09:22:52;100543.75;;;22.08;68.21
73267;BME280;61495;53.400;7.608;2023-08-06T09:25:22;100537.38;;;22.18;67.17
73267;BME280;61495;53.400;7.608;2023-08-06T09:27:51;100546.91;;;22.21;68.02
73267;BME280;61495;53.400;7.608;2023-08-06T09:30:32;100549.56;;;22.02;66.41
73267;BME280;61495;53.400;7.608;2023-08-06T09:32:58;100549.09;;;22.19;66.33
73267;BME280;61495;53.400;7.608;2023-08-06T09:35:24;100544.38;;;22.24;64.86
73267;BME280;61495;53.400;7.608;2023-08-06T09:37:49;100551.81;;;22.42;64.27
73267;BME280;61495;53.400;7.608;2023-08-06T09:40:29;100558.38;;;22.41;65.74
73267;BME280;61495;53.400;7.608;2023-08-06T09:42:55;100559.25;;;22.37;62.59
73267;BME280;61495;53.400;7.608;2023-08-06T09:45:21;100554.66;;;22.56;64.73
73267;BME280;61495;53.400;7.608;2023-08-06T09:47:55;100552.19;;;22.54;63.74
73267;BME280;61495;53.400;7.608;2023-08-06T09:50:20;100550.41;;;22.87;64.84
73267;BME280;61495;53.400;7.608;2023-08-06T09:52:50;100519.53;;;22.87;63.33
73267;BME280;61495;53.400;7.608;2023-08-06T09:55:17;100549.91;;;23.04;61.21
73267;BME280;61495;53.400;7.608;2023-08-06T09:57:43;100546.94;;;23.19;61.52
73267;BME280;61495;53.400;7.608;2023-08-06T10:00:10;100557.44;;;23.12;63.03
73267;BME280;61495;53.400;7.608;2023-08-06T10:02:40;100564.66;;;23.40;61.97
73267;BME280;61495;53.400;7.608;2023-08-06T10:05:09;100560.56;;;23.38;61.07
73267;BME280;61495;53.400;7.608;2023-08-06T10:07:35;100553.22;;;23.52;60.37
73267;BME280;61495;53.400;7.608;2023-08-06T10:10:02;100555.69;;;23.35;61.14
73267;BME280;61495;53.400;7.608;2023-08-06T10:12:32;100550.00;;;23.31;60.52
73267;BME280;61495;53.400;7.608;2023-08-06T10:15:03;100547.03;;;23.46;60.42
73267;BME280;61495;53.400;7.608;2023-08-06T10:17:31;100552.31;;;23.43;60.46
73267;BME280;61495;53.400;7.608;2023-08-06T10:19:58;100555.78;;;23.48;60.87
73267;BME280;61495;53.400;7.608;2023-08-06T10:22:24;100553.13;;;23.75;62.59
73267;BME280;61495;53.400;7.608;2023-08-06T10:24:53;100557.78;;;23.89;63.03
73267;BME280;61495;53.400;7.608;2023-08-06T10:27:34;100556.09;;;24.06;63.99
73267;BME280;61495;53.400;7.608;2023-08-06T10:30:32;100562.63;;;24.10;61.76
73267;BME280;61495;53.400;7.608;2023-08-06T10:32:59;100561.44;;;23.98;61.96
73267;BME280;61495;53.400;7.608;2023-08-06T10:37:58;100560.56;;;24.02;60.95
73267;BME280;61495;53.400;7.608;2023-08-06T10:40:23;100552.91;;;23.86;58.45
73267;BME280;61495;53.400;7.608;2023-08-06T10:42:49;100561.94;;;24.00;61.48
73267;BME280;61495;53.400;7.608;2023-08-06T10:45:16;100561.13;;;23.86;60.68
73267;BME280;61495;53.400;7.608;2023-08-06T10:47:42;100556.75;;;23.85;60.45
73267;BME280;61495;53.400;7.608;2023-08-06T10:50:12;100564.97;;;23.85;59.63
73267;BME280;61495;53.400;7.608;2023-08-06T10:52:38;100561.03;;;23.91;60.48
73267;BME280;61495;53.400;7.608;2023-08-06T10:55:04;100561.13;;;23.86;60.36
73267;BME280;61495;53.400;7.608;2023-08-06T10:57:29;100563.19;;;24.07;61.23
73267;BME280;61495;53.400;7.608;2023-08-06T10:59:55;100559.31;;;24.08;60.61
73267;BME280;61495;53.400;7.608;2023-08-06T11:02:23;100546.34;;;24.00;60.70
73267;BME280;61495;53.400;7.608;2023-08-06T11:04:49;100565.84;;;24.12;61.46
73267;BME280;61495;53.400;7.608;2023-08-06T11:07:14;100548.09;;;24.23;60.88
73267;BME280;61495;53.400;7.608;2023-08-06T11:09:39;100548.81;;;24.43;61.47
73267;BME280;61495;53.400;7.608;2023-08-06T11:12:11;100550.53;;;24.52;63.96
73267;BME280;61495;53.400;7.608;2023-08-06T11:14:36;100549.84;;;24.47;60.01
73267;BME280;61495;53.400;7.608;2023-08-06T11:17:04;100544.66;;;24.45;60.42
73267;BME280;61495;53.400;7.608;2023-08-06T11:19:30;100543.34;;;24.15;59.27
73267;BME280;61495;53.400;7.608;2023-08-06T11:21:56;100555.00;;;23.61;56.54
73267;BME280;61495;53.400;7.608;2023-08-06T11:24:23;100541.97;;;23.86;59.47
73267;BME280;61495;53.400;7.608;2023-08-06T11:26:49;100531.72;;;23.77;57.10
73267;BME280;61495;53.400;7.608;2023-08-06T11:29:15;100540.66;;;23.97;58.81
73267;BME280;61495;53.400;7.608;2023-08-06T11:31:41;100545.34;;;24.10;59.89
73267;BME280;61495;53.400;7.608;2023-08-06T11:34:06;100531.34;;;23.52;57.91
73267;BME280;61495;53.400;7.608;2023-08-06T11:36:33;100550.06;;;23.63;57.54
73267;BME280;61495;53.400;7.608;2023-08-06T11:39:00;100553.16;;;23.57;59.19
73267;BME280;61495;53.400;7.608;2023-08-06T11:41:28;100538.19;;;23.68;60.55
73267;BME280;61495;53.400;7.608;2023-08-06T11:43:54;100542.91;;;23.95;60.37
73267;BME280;61495;53.400;7.608;2023-08-06T11:46:19;100540.66;;;23.69;59.37
73267;BME280;61495;53.400;7.608;2023-08-06T11:48:54;100546.00;;;23.74;59.84
73267;BME280;61495;53.400;7.608;2023-08-06T11:51:24;100542.03;;;23.67;60.83
73267;BME280;61495;53.400;7.608;2023-08-06T11:53:55;100555.22;;;23.65;60.42
73267;BME280;61495;53.400;7.608;2023-08-06T11:56:20;100557.69;;;23.80;61.71
73267;BME280;61495;53.400;7.608;2023-08-06T11:58:46;100554.72;;;23.76;60.36
73267;BME280;61495;53.400;7.608;2023-08-06T12:01:18;100556.09;;;23.93;62.71
73267;BME280;61495;53.400;7.608;2023-08-06T12:03:43;100554.41;;;23.64;60.96
73267;BME280;61495;53.400;7.608;2023-08-06T12:06:09;100552.34;;;23.56;60.80
73267;BME280;61495;53.400;7.608;2023-08-06T12:08:34;100545.19;;;23.60;61.53
73267;BME280;61495;53.400;7.608;2023-08-06T12:10:59;100548.19;;;23.59;60.49
73267;BME280;61495;53.400;7.608;2023-08-06T12:13:25;100548.25;;;23.40;61.05
73267;BME280;61495;53.400;7.608;2023-08-06T12:15:53;100543.34;;;23.37;60.33
73267;BME280;61495;53.400;7.608;2023-08-06T12:18:19;100550.44;;;23.38;61.64
73267;BME280;61495;53.400;7.608;2023-08-06T12:20:44;100563.28;;;23.56;62.68
73267;BME280;61495;53.400;7.608;2023-08-06T12:23:10;100544.97;;;23.38;61.86
73267;BME280;61495;53.400;7.608;2023-08-06T12:25:38;100541.56;;;23.46;61.84
73267;BME280;61495;53.400;7.608;2023-08-06T12:28:04;100550.97;;;23.40;61.30
73267;BME280;61495;53.400;7.608;2023-08-06T12:30:34;100542.44;;;23.60;62.59
73267;BME280;61495;53.400;7.608;2023-08-06T12:32:59;100546.50;;;23.76;62.97
73267;BME280;61495;53.400;7.608;2023-08-06T12:35:25;100552.91;;;23.86;61.87
73267;BME280;61495;53.400;7.608;2023-08-06T12:37:51;100540.81;;;23.73;62.31
73267;BME280;61495;53.400;7.608;2023-08-06T12:40:20;100540.22;;;23.76;61.69
73267;BME280;61495;53.400;7.608;2023-08-06T12:42:45;100532.03;;;23.76;61.92
73267;BME280;61495;53.400;7.608;2023-08-06T12:45:11;100537.38;;;23.67;62.54
73267;BME280;61495;53.400;7.608;2023-08-06T12:47:36;100531.53;;;23.42;61.54
73267;BME280;61495;53.400;7.608;2023-08-06T12:50:02;100524.38;;;23.27;61.34